Time,TemperatureF,DewpointF,PressureIn,WindDirection,WindDirectionDegrees,WindSpeedMPH,WindSpeedGustMPH,Humidity,HourlyPrecipIn,Conditions,Clouds,dailyrainin,SoftwareType,DateUTC
2013-06-27 00:04:00,72.5,64.0,29.78,NNW,331,0.0,2.0,74,0.00,,,0.00,weatherlink.com 1.10,2013-06-27 05:04:00,
2013-06-27 00:19:00,72.7,64.0,29.78,NNW,331,0.0,1.0,73,0.00,,,0.00,weatherlink.com 1.10,2013-06-27 05:19:00,
2013-06-27 00:35:00,72.7,63.0,29.78,NW,319,0.0,2.0,72,0.00,,,0.00,weatherlink.com 1.10,2013-06-27 05:35:00,
2013-06-27 00:49:00,72.9,63.0,29.79,WNW,290,0.0,3.0,71,0.00,,,0.00,weatherlink.com 1.10,2013-06-27 05:49:00,
2013-06-27 01:04:00,73.0,63.0,29.79,WNW,290,1.0,2.0,70,0.00,,,0.00,weatherlink.com 1.10,2013-06-27 06:04:00,
2013-06-27 01:19:00,73.0,62.0,29.79,West,278,1.0,3.0,69,0.00,,,0.00,weatherlink.com 1.10,2013-06-27 06:19:00,
2013-06-27 01:34:00,73.0,62.0,29.79,West,279,1.0,2.0,69,0.00,,,0.00,weatherlink.com 1.10,2013-06-27 06:34:00,
2013-06-27 01:49:00,72.7,62.0,29.78,West,278,0.0,1.0,69,0.00,,,0.00,weatherlink.com 1.10,2013-06-27 06:49:00,
2013-06-27 02:04:00,72.0,62.0,29.78,West,278,0.0,0.0,71,0.00,,,0.00,weatherlink.com 1.10,2013-06-27 07:04:00,
2013-06-27 02:19:00,71.4,62.0,29.78,West,279,0.0,1.0,72,0.00,,,0.00,weatherlink.com 1.10,2013-06-27 07:19:00,
2013-06-27 02:34:00,70.7,62.0,29.78,West,279,0.0,0.0,74,0.00,,,0.00,weatherlink.com 1.10,2013-06-27 07:34:00,
2013-06-27 02:49:00,70.0,62.0,29.78,West,279,0.0,0.0,76,0.00,,,0.00,weatherlink.com 1.10,2013-06-27 07:49:00,
2013-06-27 03:04:00,69.9,62.0,29.78,West,278,0.0,0.0,75,0.00,,,0.00,weatherlink.com 1.10,2013-06-27 08:04:00,
2013-06-27 03:19:00,70.2,62.0,29.78,West,279,0.0,2.0,74,0.00,,,0.00,weatherlink.com 1.10,2013-06-27 08:19:00,
2013-06-27 03:34:00,71.0,62.0,29.77,West,276,0.0,3.0,73,0.00,,,0.00,weatherlink.com 1.10,2013-06-27 08:34:00,
2013-06-27 03:49:00,70.3,62.0,29.77,West,276,0.0,0.0,75,0.00,,,0.00,weatherlink.com 1.10,2013-06-27 08:49:00,
2013-06-27 04:04:00,69.3,62.0,29.78,West,276,0.0,1.0,77,0.00,,,0.00,weatherlink.com 1.10,2013-06-27 09:04:00,
2013-06-27 04:19:00,69.2,61.0,29.78,West,276,0.0,1.0,76,0.00,,,0.00,weatherlink.com 1.10,2013-06-27 09:19:00,
2013-06-27 04:34:00,71.2,62.0,29.79,SW,215,2.0,4.0,72,0.00,,,0.00,weatherlink.com 1.10,2013-06-27 09:34:00,
2013-06-27 04:49:00,71.2,62.0,29.79,SW,226,3.0,4.0,73,0.00,,,0.00,weatherlink.com 1.10,2013-06-27 09:49:00,
2013-06-27 05:05:00,70.9,63.0,29.79,WSW,242,4.0,4.0,76,0.00,,,0.00,weatherlink.com 1.10,2013-06-27 10:05:00,
2013-06-27 05:19:00,70.8,63.0,29.79,SW,229,3.0,7.0,77,0.00,,,0.00,weatherlink.com 1.10,2013-06-27 10:19:00,
2013-06-27 05:34:00,71.1,63.0,29.79,SW,227,2.0,5.0,76,0.00,,,0.00,weatherlink.com 1.10,2013-06-27 10:34:00,
2013-06-27 05:50:00,71.3,63.0,29.80,SW,234,1.0,7.0,75,0.00,,,0.00,weatherlink.com 1.10,2013-06-27 10:50:00,
2013-06-27 06:05:00,71.5,63.0,29.79,SW,227,2.0,5.0,74,0.00,,,0.00,weatherlink.com 1.10,2013-06-27 11:05:00,
2013-06-27 06:20:00,72.4,63.0,29.79,SSW,199,3.0,5.0,71,0.00,,,0.00,weatherlink.com 1.10,2013-06-27 11:20:00,
2013-06-27 06:35:00,73.1,61.0,29.79,WSW,248,1.0,5.0,67,0.00,,,0.00,weatherlink.com 1.10,2013-06-27 11:35:00,
2013-06-27 06:50:00,74.0,62.0,29.80,WSW,254,3.0,6.0,66,0.00,,,0.00,weatherlink.com 1.10,2013-06-27 11:50:00,
2013-06-27 07:05:00,74.6,62.0,29.80,WSW,238,2.0,7.0,64,0.00,,,0.00,weatherlink.com 1.10,2013-06-27 12:05:00,
2013-06-27 07:20:00,74.2,63.0,29.81,WSW,252,2.0,10.0,67,0.00,,,0.00,weatherlink.com 1.10,2013-06-27 12:20:00,
2013-06-27 07:35:00,74.8,62.0,29.80,SW,229,4.0,8.0,65,0.00,,,0.00,weatherlink.com 1.10,2013-06-27 12:35:00,
2013-06-27 07:50:00,74.9,62.0,29.79,SW,229,3.0,7.0,65,0.00,,,0.00,weatherlink.com 1.10,2013-06-27 12:50:00,
2013-06-27 08:05:00,74.6,63.0,29.80,WSW,254,5.0,8.0,67,0.00,,,0.00,weatherlink.com 1.10,2013-06-27 13:05:00,
2013-06-27 08:20:00,74.4,64.0,29.81,WSW,258,3.0,10.0,70,0.00,,,0.00,weatherlink.com 1.10,2013-06-27 13:20:00,
2013-06-27 08:35:00,75.3,64.0,29.80,WNW,297,3.0,9.0,69,0.00,,,0.00,weatherlink.com 1.10,2013-06-27 13:35:00,
2013-06-27 08:50:00,75.8,64.0,29.80,NNW,329,2.0,8.0,68,0.00,,,0.00,weatherlink.com 1.10,2013-06-27 13:50:00,
2013-06-27 09:05:00,76.5,65.0,29.80,NW,309,5.0,8.0,68,0.00,,,0.00,weatherlink.com 1.10,2013-06-27 14:05:00,
2013-06-27 09:20:00,76.7,65.0,29.81,WSW,256,4.0,8.0,68,0.00,,,0.00,weatherlink.com 1.10,2013-06-27 14:20:00,
2013-06-27 09:35:00,76.9,66.0,29.81,WNW,300,3.0,10.0,68,0.00,,,0.00,weatherlink.com 1.10,2013-06-27 14:35:00,
2013-06-27 09:50:00,77.6,66.0,29.81,WNW,290,4.0,9.0,67,0.00,,,0.00,weatherlink.com 1.10,2013-06-27 14:50:00,
2013-06-27 10:05:00,78.0,66.0,29.81,WNW,303,4.0,8.0,66,0.00,,,0.00,weatherlink.com 1.10,2013-06-27 15:05:00,
2013-06-27 10:20:00,78.7,66.0,29.81,NW,323,3.0,7.0,65,0.00,,,0.00,weatherlink.com 1.10,2013-06-27 15:20:00,
2013-06-27 10:35:00,79.5,65.0,29.81,NW,319,8.0,10.0,62,0.00,,,0.00,weatherlink.com 1.10,2013-06-27 15:35:00,
2013-06-27 10:50:00,80.6,65.0,29.82,NW,305,4.0,11.0,59,0.00,,,0.00,weatherlink.com 1.10,2013-06-27 15:50:00,
2013-06-27 11:05:00,81.4,65.0,29.82,NW,307,6.0,14.0,57,0.00,,,0.00,weatherlink.com 1.10,2013-06-27 16:05:00,
2013-06-27 11:20:00,82.2,65.0,29.83,NW,309,4.0,12.0,56,0.00,,,0.00,weatherlink.com 1.10,2013-06-27 16:20:00,
2013-06-27 11:35:00,82.1,63.0,29.84,WNW,286,5.0,16.0,53,0.00,,,0.00,weatherlink.com 1.10,2013-06-27 16:35:00,
2013-06-27 11:50:00,82.1,62.0,29.84,WNW,288,10.0,10.0,51,0.00,,,0.00,weatherlink.com 1.10,2013-06-27 16:50:00,
2013-06-27 12:05:00,82.9,62.0,29.85,West,279,5.0,15.0,50,0.00,,,0.00,weatherlink.com 1.10,2013-06-27 17:05:00,
2013-06-27 12:20:00,82.3,63.0,29.85,West,270,6.0,10.0,52,0.00,,,0.00,weatherlink.com 1.10,2013-06-27 17:20:00,
2013-06-27 12:35:00,81.7,64.0,29.84,SSW,193,4.0,10.0,56,0.00,,,0.00,weatherlink.com 1.10,2013-06-27 17:35:00,
2013-06-27 12:50:00,81.1,67.0,29.84,WSW,242,9.0,9.0,62,0.00,,,0.00,weatherlink.com 1.10,2013-06-27 17:50:00,
2013-06-27 13:05:00,81.1,66.0,29.84,SW,215,7.0,9.0,61,0.00,,,0.00,weatherlink.com 1.10,2013-06-27 18:05:00,
2013-06-27 13:20:00,81.1,67.0,29.84,SW,236,6.0,8.0,62,0.00,,,0.00,weatherlink.com 1.10,2013-06-27 18:20:00,
2013-06-27 13:35:00,81.7,68.0,29.84,WSW,251,7.0,9.0,64,0.00,,,0.00,weatherlink.com 1.10,2013-06-27 18:35:00,
2013-06-27 13:50:00,81.8,67.0,29.83,West,268,5.0,13.0,62,0.00,,,0.00,weatherlink.com 1.10,2013-06-27 18:50:00,
2013-06-27 14:05:00,82.2,66.0,29.83,West,271,5.0,15.0,59,0.00,,,0.00,weatherlink.com 1.10,2013-06-27 19:05:00,
2013-06-27 14:20:00,82.9,66.0,29.83,SW,234,6.0,13.0,56,0.00,,,0.00,weatherlink.com 1.10,2013-06-27 19:20:00,
2013-06-27 14:35:00,85.0,65.0,29.82,West,267,5.0,15.0,51,0.00,,,0.00,weatherlink.com 1.10,2013-06-27 19:35:00,
2013-06-27 14:51:00,86.0,63.0,29.82,West,260,4.0,14.0,47,0.00,,,0.00,weatherlink.com 1.10,2013-06-27 19:51:00,
2013-06-27 15:06:00,85.7,62.0,29.82,NW,311,6.0,14.0,45,0.00,,,0.00,weatherlink.com 1.10,2013-06-27 20:06:00,
2013-06-27 15:21:00,85.7,63.0,29.82,WNW,292,15.0,15.0,46,0.00,,,0.00,weatherlink.com 1.10,2013-06-27 20:21:00,
2013-06-27 15:36:00,86.8,62.0,29.82,NNE,17,6.0,14.0,43,0.00,,,0.00,weatherlink.com 1.10,2013-06-27 20:36:00,
2013-06-27 15:51:00,86.7,61.0,29.81,North,5,8.0,15.0,42,0.00,,,0.00,weatherlink.com 1.10,2013-06-27 20:51:00,
2013-06-27 16:06:00,87.3,60.0,29.80,NNW,333,5.0,15.0,40,0.00,,,0.00,weatherlink.com 1.10,2013-06-27 21:06:00,
2013-06-27 16:21:00,87.7,57.0,29.80,WNW,294,9.0,16.0,35,0.00,,,0.00,weatherlink.com 1.10,2013-06-27 21:21:00,
2013-06-27 16:36:00,87.4,57.0,29.80,WNW,302,10.0,18.0,35,0.00,,,0.00,weatherlink.com 1.10,2013-06-27 21:36:00,
2013-06-27 16:51:00,87.5,55.0,29.81,NW,312,12.0,14.0,33,0.00,,,0.00,weatherlink.com 1.10,2013-06-27 21:51:00,
2013-06-27 17:06:00,87.0,55.0,29.80,NW,304,8.0,21.0,33,0.00,,,0.00,weatherlink.com 1.10,2013-06-27 22:06:00,
2013-06-27 17:21:00,87.1,53.0,29.80,WNW,300,7.0,17.0,31,0.00,,,0.00,weatherlink.com 1.10,2013-06-27 22:21:00,
2013-06-27 17:36:00,86.9,54.0,29.80,NNW,340,5.0,15.0,32,0.00,,,0.00,weatherlink.com 1.10,2013-06-27 22:36:00,
2013-06-27 17:51:00,87.0,55.0,29.80,NW,306,9.0,16.0,33,0.00,,,0.00,weatherlink.com 1.10,2013-06-27 22:51:00,
2013-06-27 18:06:00,86.8,55.0,29.79,WNW,287,7.0,13.0,34,0.00,,,0.00,weatherlink.com 1.10,2013-06-27 23:06:00,
2013-06-27 18:21:00,86.8,55.0,29.79,NW,304,3.0,14.0,34,0.00,,,0.00,weatherlink.com 1.10,2013-06-27 23:21:00,
2013-06-27 18:36:00,86.8,55.0,29.80,NW,318,10.0,15.0,34,0.00,,,0.00,weatherlink.com 1.10,2013-06-27 23:36:00,
2013-06-27 18:51:00,86.6,55.0,29.79,NNW,347,9.0,15.0,34,0.00,,,0.00,weatherlink.com 1.10,2013-06-27 23:51:00,
2013-06-27 19:06:00,86.0,55.0,29.79,WNW,303,9.0,15.0,34,0.00,,,0.00,weatherlink.com 1.10,2013-06-28 00:06:00,
2013-06-27 19:21:00,85.6,55.0,29.79,WNW,298,13.0,15.0,35,0.00,,,0.00,weatherlink.com 1.10,2013-06-28 00:21:00,
2013-06-27 19:51:00,84.7,55.0,29.79,NW,311,8.0,15.0,36,0.00,,,0.00,weatherlink.com 1.10,2013-06-28 00:51:00,
2013-06-27 20:06:00,83.4,54.0,29.79,NW,317,8.0,14.0,36,0.00,,,0.00,weatherlink.com 1.10,2013-06-28 01:06:00,
2013-06-27 20:22:00,82.7,54.0,29.79,NW,316,6.0,16.0,37,0.00,,,0.00,weatherlink.com 1.10,2013-06-28 01:22:00,
2013-06-27 20:36:00,82.0,54.0,29.78,NNW,341,6.0,10.0,38,0.00,,,0.00,weatherlink.com 1.10,2013-06-28 01:36:00,
2013-06-27 20:51:00,81.1,55.0,29.78,NNW,328,2.0,10.0,40,0.00,,,0.00,weatherlink.com 1.10,2013-06-28 01:51:00,
2013-06-27 21:06:00,80.0,55.0,29.78,NW,314,2.0,9.0,42,0.00,,,0.00,weatherlink.com 1.10,2013-06-28 02:06:00,
2013-06-27 21:21:00,79.2,55.0,29.78,NW,306,4.0,7.0,44,0.00,,,0.00,weatherlink.com 1.10,2013-06-28 02:21:00,
2013-06-27 21:36:00,78.6,55.0,29.79,NW,319,1.0,4.0,45,0.00,,,0.00,weatherlink.com 1.10,2013-06-28 02:36:00,
2013-06-27 21:51:00,77.7,56.0,29.79,NW,306,2.0,3.0,47,0.00,,,0.00,weatherlink.com 1.10,2013-06-28 02:51:00,
2013-06-27 22:06:00,76.9,56.0,29.79,NW,308,0.0,2.0,49,0.00,,,0.00,weatherlink.com 1.10,2013-06-28 03:06:00,
2013-06-27 22:21:00,76.5,57.0,29.78,WNW,300,0.0,4.0,51,0.00,,,0.00,weatherlink.com 1.10,2013-06-28 03:21:00,
2013-06-27 23:06:00,74.5,58.0,29.79,West,263,1.0,3.0,56,0.00,,,0.00,weatherlink.com 1.10,2013-06-28 04:06:00,
2013-06-27 23:21:00,74.1,58.0,29.79,West,260,1.0,3.0,57,0.00,,,0.00,weatherlink.com 1.10,2013-06-28 04:21:00,
2013-06-27 23:36:00,73.9,59.0,29.80,SW,229,2.0,4.0,59,0.00,,,0.00,weatherlink.com 1.10,2013-06-28 04:36:00,
2013-06-27 23:51:00,73.7,59.0,29.80,WSW,241,3.0,5.0,60,0.00,,,0.00,weatherlink.com 1.10,2013-06-28 04:51:00,